sensor_id;sensor_type;location;lat;lon;timestamp;pressure;altitude;pressure_sealevel;temperature;humidity
58955;BME280;45815;52.334;5.024;2023-04-26T00:01:12;101971.00;;;5.29;100.00
58955;BME280;45815;52.334;5.024;2023-04-26T00:03:39;101969.84;;;5.24;100.00
58955;BME280;45815;52.334;5.024;2023-04-26T00:06:05;101974.84;;;5.21;100.00
58955;BME280;45815;52.334;5.024;2023-04-26T00:08:37;101969.47;;;5.18;100.00
58955;BME280;45815;52.334;5.024;2023-04-26T00:11:03;101976.44;;;5.19;100.00
58955;BME280;45815;52.334;5.024;2023-04-26T00:13:28;101968.31;;;5.13;100.00
58955;BME280;45815;52.334;5.024;2023-04-26T00:15:54;101972.34;;;5.08;100.00
58955;BME280;45815;52.334;5.024;2023-04-26T00:18:19;101979.34;;;5.09;100.00
58955;BME280;45815;52.334;5.024;2023-04-26T00:20:44;101975.63;;;5.05;100.00
58955;BME280;45815;52.334;5.024;2023-04-26T00:23:10;101984.25;;;5.04;100.00
58955;BME280;45815;52.334;5.024;2023-04-26T00:25:36;101977.78;;;4.98;100.00
58955;BME280;45815;52.334;5.024;2023-04-26T00:28:02;101968.63;;;4.90;100.00
58955;BME280;45815;52.334;5.024;2023-04-26T00:30:27;101975.44;;;4.88;100.00
58955;BME280;45815;52.334;5.024;2023-04-26T00:32:53;101965.47;;;4.80;100.00
58955;BME280;45815;52.334;5.024;2023-04-26T00:35:19;101967.97;;;4.79;100.00
58955;BME280;45815;52.334;5.024;2023-04-26T00:37:44;101953.09;;;4.76;100.00
58955;BME280;45815;52.334;5.024;2023-04-26T00:40:11;101961.72;;;4.75;100.00
58955;BME280;45815;52.334;5.024;2023-04-26T00:42:37;101958.13;;;4.73;100.00
58955;BME280;45815;52.334;5.024;2023-04-26T00:45:04;101964.91;;;4.71;100.00
58955;BME280;45815;52.334;5.024;2023-04-26T00:47:30;101964.81;;;4.70;100.00
58955;BME280;45815;52.334;5.024;2023-04-26T00:49:57;101963.09;;;4.70;100.00
58955;BME280;45815;52.334;5.024;2023-04-26T00:52:23;101961.22;;;4.68;100.00
58955;BME280;45815;52.334;5.024;2023-04-26T00:54:49;101963.03;;;4.69;100.00
58955;BME280;45815;52.334;5.024;2023-04-26T00:57:15;101958.34;;;4.63;100.00
58955;BME280;45815;52.334;5.024;2023-04-26T00:59:41;101959.78;;;4.58;100.00
58955;BME280;45815;52.334;5.024;2023-04-26T01:02:06;101954.69;;;4.59;100.00
58955;BME280;45815;52.334;5.024;2023-04-26T01:04:32;101959.78;;;4.58;100.00
58955;BME280;45815;52.334;5.024;2023-04-26T01:06:59;101961.31;;;4.54;100.00
58955;BME280;45815;52.334;5.024;2023-04-26T01:09:24;101960.19;;;4.51;100.00
58955;BME280;45815;52.334;5.024;2023-04-26T01:11:51;101964.28;;;4.47;100.00
58955;BME280;45815;52.334;5.024;2023-04-26T01:14:17;101965.00;;;4.44;100.00
58955;BME280;45815;52.334;5.024;2023-04-26T01:16:43;101959.44;;;4.38;100.00
58955;BME280;45815;52.334;5.024;2023-04-26T01:19:12;101968.03;;;4.37;100.00
58955;BME280;45815;52.334;5.024;2023-04-26T01:21:38;101966.25;;;4.36;100.00
58955;BME280;45815;52.334;5.024;2023-04-26T01:24:04;101964.44;;;4.35;100.00
58955;BME280;45815;52.334;5.024;2023-04-26T01:26:31;101973.06;;;4.34;100.00
58955;BME280;45815;52.334;5.024;2023-04-26T01:28:57;101971.28;;;4.33;100.00
58955;BME280;45815;52.334;5.024;2023-04-26T01:31:23;101960.66;;;4.30;100.00
58955;BME280;45815;52.334;5.024;2023-04-26T01:33:48;101968.84;;;4.36;100.00
58955;BME280;45815;52.334;5.024;2023-04-26T01:36:13;101969.63;;;4.35;100.00
58955;BME280;45815;52.334;5.024;2023-04-26T01:38:39;101975.53;;;4.33;100.00
58955;BME280;45815;52.334;5.024;2023-04-26T01:41:04;101976.25;;;4.30;100.00
58955;BME280;45815;52.334;5.024;2023-04-26T01:43:31;101976.25;;;4.30;100.00
58955;BME280;45815;52.334;5.024;2023-04-26T01:45:56;101970.06;;;4.28;100.00
58955;BME280;45815;52.334;5.024;2023-04-26T01:48:28;101970.75;;;4.26;100.00
58955;BME280;45815;52.334;5.024;2023-04-26T01:50:53;101956.88;;;4.25;100.00
58955;BME280;45815;52.334;5.024;2023-04-26T01:53:19;101958.47;;;4.23;100.00
58955;BME280;45815;52.334;5.024;2023-04-26T01:55:45;101967.09;;;4.22;100.00
58955;BME280;45815;52.334;5.024;2023-04-26T01:58:10;101966.88;;;4.19;100.00
58955;BME280;45815;52.334;5.024;2023-04-26T02:00:36;101959.00;;;4.17;100.00
58955;BME280;45815;52.334;5.024;2023-04-26T02:03:02;101964.09;;;4.16;100.00
58955;BME280;45815;52.334;5.024;2023-04-26T02:05:28;101958.72;;;4.13;100.00
58955;BME280;45815;52.334;5.024;2023-04-26T02:07:54;101968.13;;;4.11;100.00
58955;BME280;45815;52.334;5.024;2023-04-26T02:10:20;101962.72;;;4.08;100.00
58955;BME280;45815;52.334;5.024;2023-04-26T02:12:46;101967.72;;;4.05;100.00
58955;BME280;45815;52.334;5.024;2023-04-26T02:15:11;101972.03;;;4.04;100.00
58955;BME280;45815;52.334;5.024;2023-04-26T02:17:37;101954.06;;;3.94;100.00
58955;BME280;45815;52.334;5.024;2023-04-26T02:20:03;101967.34;;;3.98;100.00
58955;BME280;45815;52.334;5.024;2023-04-26T02:22:28;101965.53;;;3.97;100.00
58955;BME280;45815;52.334;5.024;2023-04-26T02:24:55;101964.53;;;3.95;100.00
58955;BME280;45815;52.334;5.024;2023-04-26T02:27:25;101973.84;;;3.92;100.00
58955;BME280;45815;52.334;5.024;2023-04-26T02:29:53;101969.66;;;3.94;100.00
58955;BME280;45815;52.334;5.024;2023-04-26T02:32:18;101967.75;;;3.91;100.00
58955;BME280;45815;52.334;5.024;2023-04-26T02:34:43;101964.22;;;3.91;100.00
58955;BME280;45815;52.334;5.024;2023-04-26T02:37:09;101968.34;;;3.87;100.00
58955;BME280;45815;52.334;5.024;2023-04-26T02:39:35;101966.47;;;3.85;100.00
58955;BME280;45815;52.334;5.024;2023-04-26T02:42:01;101963.75;;;3.83;100.00
58955;BME280;45815;52.334;5.024;2023-04-26T02:44:29;101964.56;;;3.82;100.00
58955;BME280;45815;52.334;5.024;2023-04-26T02:46:55;101957.38;;;3.78;100.00
58955;BME280;45815;52.334;5.024;2023-04-26T02:49:21;101965.28;;;3.79;100.00
58955;BME280;45815;52.334;5.024;2023-04-26T02:51:46;101964.16;;;3.76;100.00
58955;BME280;45815;52.334;5.024;2023-04-26T02:54:12;101957.06;;;3.73;100.00
58955;BME280;45815;52.334;5.024;2023-04-26T02:56:37;101955.19;;;3.71;100.00
58955;BME280;45815;52.334;5.024;2023-04-26T02:59:02;101951.78;;;3.72;100.00
58955;BME280;45815;52.334;5.024;2023-04-26T03:01:28;101951.78;;;3.72;100.00
58955;BME280;45815;52.334;5.024;2023-04-26T03:03:53;101949.97;;;3.71;100.00
58955;BME280;45815;52.334;5.024;2023-04-26T03:06:19;101947.28;;;3.69;100.00
58955;BME280;45815;52.334;5.024;2023-04-26T03:08:44;101952.41;;;3.68;100.00
58955;BME280;45815;52.334;5.024;2023-04-26T03:11:10;101946.38;;;3.69;100.00
58955;BME280;45815;52.334;5.024;2023-04-26T03:13:35;101955.19;;;3.71;100.00
58955;BME280;45815;52.334;5.024;2023-04-26T03:16:02;101958.56;;;3.70;100.00
58955;BME280;45815;52.334;5.024;2023-04-26T03:18:28;101955.88;;;3.68;100.00
58955;BME280;45815;52.334;5.024;2023-04-26T03:20:53;101955.88;;;3.68;100.00
58955;BME280;45815;52.334;5.024;2023-04-26T03:23:19;101954.78;;;3.65;100.00
58955;BME280;45815;52.334;5.024;2023-04-26T03:25:48;101945.00;;;3.61;100.00
58955;BME280;45815;52.334;5.024;2023-04-26T03:28:13;101950.97;;;3.59;100.00
58955;BME280;45815;52.334;5.024;2023-04-26T03:30:39;101951.69;;;3.57;100.00
58955;BME280;45815;52.334;5.024;2023-04-26T03:33:04;101952.38;;;3.54;100.00
58955;BME280;45815;52.334;5.024;2023-04-26T03:35:30;101947.97;;;3.53;100.00
58955;BME280;45815;52.334;5.024;2023-04-26T03:37:56;101945.38;;;3.53;100.00
58955;BME280;45815;52.334;5.024;2023-04-26T03:40:21;101941.19;;;3.55;100.00
58955;BME280;45815;52.334;5.024;2023-04-26T03:42:47;101945.59;;;3.56;100.00
58955;BME280;45815;52.334;5.024;2023-04-26T03:45:13;101940.41;;;3.56;100.00
58955;BME280;45815;52.334;5.024;2023-04-26T03:47:39;101940.59;;;3.59;100.00
58955;BME280;45815;52.334;5.024;2023-04-26T03:50:06;101948.50;;;3.61;100.00
58955;BME280;45815;52.334;5.024;2023-04-26T03:52:32;101945.97;;;3.63;100.00
58955;BME280;45815;52.334;5.024;2023-04-26T03:54:58;101947.09;;;3.66;100.00
58955;BME280;45815;52.334;5.024;2023-04-26T03:57:23;101950.69;;;3.68;100.00
58955;BME280;45815;52.334;5.024;2023-04-26T03:59:49;101948.28;;;3.71;100.00
58955;BME280;45815;52.334;5.024;2023-04-26T04:02:15;101941.38;;;3.72;100.00
58955;BME280;45815;52.334;5.024;2023-04-26T04:04:40;101944.19;;;3.75;100.00
58955;BME280;45815;52.334;5.024;2023-04-26T04:07:06;101950.41;;;3.77;100.00
58955;BME280;45815;52.334;5.024;2023-04-26T04:09:32;101946.16;;;3.79;100.00
58955;BME280;45815;52.334;5.024;2023-04-26T04:11:58;101938.59;;;3.82;100.00
58955;BME280;45815;52.334;5.024;2023-04-26T04:14:24;101940.50;;;3.85;100.00
58955;BME280;45815;52.334;5.024;2023-04-26T04:16:49;101943.97;;;3.85;100.00
58955;BME280;45815;52.334;5.024;2023-04-26T04:19:15;101938.66;;;3.84;100.00
58955;BME280;45815;52.334;5.024;2023-04-26T04:21:41;101946.28;;;3.80;100.00
58955;BME280;45815;52.334;5.024;2023-04-26T04:24:07;101948.75;;;3.79;100.00
58955;BME280;45815;52.334;5.024;2023-04-26T04:26:33;101942.88;;;3.81;100.00
58955;BME280;45815;52.334;5.024;2023-04-26T04:28:58;101950.56;;;3.80;100.00
58955;BME280;45815;52.334;5.024;2023-04-26T04:31:36;101954.66;;;3.76;100.00
58955;BME280;45815;52.334;5.024;2023-04-26T04:34:02;101950.56;;;3.80;100.00
58955;BME280;45815;52.334;5.024;2023-04-26T04:36:27;101937.88;;;3.85;100.00
58955;BME280;45815;52.334;5.024;2023-04-26T04:38:53;101939.97;;;3.90;100.00
58955;BME280;45815;52.334;5.024;2023-04-26T04:41:18;101942.97;;;3.96;100.00
58955;BME280;45815;52.334;5.024;2023-04-26T04:43:48;101950.16;;;4.00;100.00
58955;BME280;45815;52.334;5.024;2023-04-26T04:46:13;101939.94;;;4.04;100.00
58955;BME280;45815;52.334;5.024;2023-04-26T04:48:39;101946.03;;;4.04;100.00
58955;BME280;45815;52.334;5.024;2023-04-26T04:51:05;101939.94;;;4.04;100.00
58955;BME280;45815;52.334;5.024;2023-04-26T04:53:30;101952.34;;;4.08;100.00
58955;BME280;45815;52.334;5.024;2023-04-26T04:55:56;101946.63;;;4.13;100.00
58955;BME280;45815;52.334;5.024;2023-04-26T04:58:22;101952.28;;;4.21;100.00
58955;BME280;45815;52.334;5.024;2023-04-26T05:00:48;101951.78;;;4.27;100.00
58955;BME280;45815;52.334;5.024;2023-04-26T05:03:23;101957.28;;;4.31;100.00
58955;BME280;45815;52.334;5.024;2023-04-26T05:05:49;101956.84;;;4.38;100.00
58955;BME280;45815;52.334;5.024;2023-04-26T05:08:14;101951.22;;;4.46;100.00
58955;BME280;45815;52.334;5.024;2023-04-26T05:10:40;101956.09;;;4.54;100.00
58955;BME280;45815;52.334;5.024;2023-04-26T05:13:06;101956.56;;;4.62;100.00
58955;BME280;45815;52.334;5.024;2023-04-26T05:15:32;101959.72;;;4.71;100.00
58955;BME280;45815;52.334;5.024;2023-04-26T05:17:57;101944.28;;;4.74;100.00
58955;BME280;45815;52.334;5.024;2023-04-26T05:20:24;101964.66;;;4.96;100.00
58955;BME280;45815;52.334;5.024;2023-04-26T05:22:50;101967.13;;;5.08;100.00
58955;BME280;45815;52.334;5.024;2023-04-26T05:25:16;101966.31;;;5.09;100.00
58955;BME280;45815;52.334;5.024;2023-04-26T05:27:43;101968.91;;;5.24;100.00
58955;BME280;45815;52.334;5.024;2023-04-26T05:30:24;101972.44;;;5.24;100.00
58955;BME280;45815;52.334;5.024;2023-04-26T05:33:09;101972.16;;;5.35;100.00
58955;BME280;45815;52.334;5.024;2023-04-26T05:35:42;101976.47;;;5.49;100.00
58955;BME280;45815;52.334;5.024;2023-04-26T05:38:08;101972.59;;;5.57;100.00
58955;BME280;45815;52.334;5.024;2023-04-26T05:40:34;101968.88;;;5.68;100.00
58955;BME280;45815;52.334;5.024;2023-04-26T05:43:00;101969.25;;;5.75;100.00
58955;BME280;45815;52.334;5.024;2023-04-26T05:45:26;101971.38;;;5.82;100.00
58955;BME280;45815;52.334;5.024;2023-04-26T05:47:52;101978.19;;;5.95;100.00
58955;BME280;45815;52.334;5.024;2023-04-26T05:50:17;101964.78;;;6.03;100.00
58955;BME280;45815;52.334;5.024;2023-04-26T05:52:43;101965.94;;;6.08;100.00
58955;BME280;45815;52.334;5.024;2023-04-26T05:55:09;101974.75;;;6.10;100.00
58955;BME280;45815;52.334;5.024;2023-04-26T05:57:35;101969.53;;;6.10;100.00
58955;BME280;45815;52.334;5.024;2023-04-26T06:00:01;101972.06;;;6.09;100.00
58955;BME280;45815;52.334;5.024;2023-04-26T06:02:28;101965.78;;;6.05;100.00
58955;BME280;45815;52.334;5.024;2023-04-26T06:04:53;101971.00;;;6.05;100.00
58955;BME280;45815;52.334;5.024;2023-04-26T06:07:19;101971.16;;;6.08;100.00
58955;BME280;45815;52.334;5.024;2023-04-26T06:09:45;101964.41;;;6.12;100.00
58955;BME280;45815;52.334;5.024;2023-04-26T06:12:11;101969.06;;;6.18;100.00
58955;BME280;45815;52.334;5.024;2023-04-26T06:14:39;101968.56;;;6.25;100.00
58955;BME280;45815;52.334;5.024;2023-04-26T06:17:09;101971.69;;;6.34;100.00
58955;BME280;45815;52.334;5.024;2023-04-26T06:19:35;101966.81;;;6.40;100.00
58955;BME280;45815;52.334;5.024;2023-04-26T06:22:00;101965.44;;;6.47;100.00
58955;BME280;45815;52.334;5.024;2023-04-26T06:24:26;101976.03;;;6.50;100.00
58955;BME280;45815;52.334;5.024;2023-04-26T06:26:51;101979.38;;;6.47;100.00
58955;BME280;45815;52.334;5.024;2023-04-26T06:29:17;101974.66;;;6.57;100.00
58955;BME280;45815;52.334;5.024;2023-04-26T06:31:43;101980.44;;;6.67;100.00
58955;BME280;45815;52.334;5.024;2023-04-26T06:34:08;101984.34;;;6.75;100.00
58955;BME280;45815;52.334;5.024;2023-04-26T06:36:34;101990.63;;;6.79;100.00
58955;BME280;45815;52.334;5.024;2023-04-26T06:39:00;101974.16;;;6.80;100.00
58955;BME280;45815;52.334;5.024;2023-04-26T06:41:25;101993.88;;;6.91;100.00
58955;BME280;45815;52.334;5.024;2023-04-26T06:43:51;101985.69;;;7.02;100.00
58955;BME280;45815;52.334;5.024;2023-04-26T06:46:18;101987.16;;;7.13;100.00
58955;BME280;45815;52.334;5.024;2023-04-26T06:48:52;101988.38;;;7.19;100.00
58955;BME280;45815;52.334;5.024;2023-04-26T06:51:18;101997.56;;;7.29;100.00
58955;BME280;45815;52.334;5.024;2023-04-26T06:53:43;101995.56;;;7.42;100.00
58955;BME280;45815;52.334;5.024;2023-04-26T06:56:09;101994.47;;;7.54;100.00
58955;BME280;45815;52.334;5.024;2023-04-26T06:58:34;101995.16;;;7.50;100.00
58955;BME280;45815;52.334;5.024;2023-04-26T07:01:00;101995.22;;;7.52;100.00
58955;BME280;45815;52.334;5.024;2023-04-26T07:03:26;101993.75;;;7.57;100.00
58955;BME280;45815;52.334;5.024;2023-04-26T07:05:54;102005.16;;;7.59;100.00
58955;BME280;45815;52.334;5.024;2023-04-26T07:08:20;102009.41;;;7.57;100.00
58955;BME280;45815;52.334;5.024;2023-04-26T07:10:45;102004.19;;;7.57;100.00
58955;BME280;45815;52.334;5.024;2023-04-26T07:13:11;102001.13;;;7.48;100.00
58955;BME280;45815;52.334;5.024;2023-04-26T07:15:36;102010.50;;;7.44;100.00
58955;BME280;45815;52.334;5.024;2023-04-26T07:18:02;101998.19;;;7.42;100.00
58955;BME280;45815;52.334;5.024;2023-04-26T07:20:27;102000.38;;;7.50;100.00
58955;BME280;45815;52.334;5.024;2023-04-26T07:22:52;101999.75;;;7.56;100.00
58955;BME280;45815;52.334;5.024;2023-04-26T07:25:18;102004.53;;;7.47;100.00
58955;BME280;45815;52.334;5.024;2023-04-26T07:27:43;102001.19;;;7.49;100.00
58955;BME280;45815;52.334;5.024;2023-04-26T07:30:09;102001.13;;;7.48;100.00
58955;BME280;45815;52.334;5.024;2023-04-26T07:32:35;102002.75;;;7.46;100.00
58955;BME280;45815;52.334;5.024;2023-04-26T07:35:04;101997.53;;;7.46;100.00
58955;BME280;45815;52.334;5.024;2023-04-26T07:37:31;102003.41;;;7.42;100.00
58955;BME280;45815;52.334;5.024;2023-04-26T07:39:56;102003.88;;;7.51;100.00
58955;BME280;45815;52.334;5.024;2023-04-26T07:42:22;102005.00;;;7.56;100.00
58955;BME280;45815;52.334;5.024;2023-04-26T07:44:47;102003.34;;;7.58;100.00
58955;BME280;45815;52.334;5.024;2023-04-26T07:47:13;102005.44;;;7.65;100.00
58955;BME280;45815;52.334;5.024;2023-04-26T07:49:39;102009.50;;;7.76;100.00
58955;BME280;45815;52.334;5.024;2023-04-26T07:52:05;102004.63;;;7.84;100.00
58955;BME280;45815;52.334;5.024;2023-04-26T07:54:32;102011.22;;;7.94;100.00
58955;BME280;45815;52.334;5.024;2023-04-26T07:56:57;102011.81;;;8.06;100.00
58955;BME280;45815;52.334;5.024;2023-04-26T07:59:22;102021.06;;;8.17;100.00
58955;BME280;45815;52.334;5.024;2023-04-26T08:01:48;102018.81;;;8.25;100.00
58955;BME280;45815;52.334;5.024;2023-04-26T08:04:14;102015.59;;;8.31;100.00
58955;BME280;45815;52.334;5.024;2023-04-26T08:06:39;102020.69;;;8.28;100.00
58955;BME280;45815;52.334;5.024;2023-04-26T08:09:09;102010.22;;;8.28;100.00
58955;BME280;45815;52.334;5.024;2023-04-26T08:11:35;102012.75;;;8.44;100.00
58955;BME280;45815;52.334;5.024;2023-04-26T08:14:01;102013.84;;;8.49;100.00
58955;BME280;45815;52.334;5.024;2023-04-26T08:16:26;102011.53;;;8.55;100.00
58955;BME280;45815;52.334;5.024;2023-04-26T08:18:52;102011.41;;;8.52;100.00
58955;BME280;45815;52.334;5.024;2023-04-26T08:21:17;102011.47;;;8.54;100.00
58955;BME280;45815;52.334;5.024;2023-04-26T08:23:42;102014.53;;;8.45;100.00
58955;BME280;45815;52.334;5.024;2023-04-26T08:26:08;102017.16;;;8.45;100.00
58955;BME280;45815;52.334;5.024;2023-04-26T08:28:33;102015.59;;;8.31;100.00
58955;BME280;45815;52.334;5.024;2023-04-26T08:30:59;102003.69;;;8.37;100.00
58955;BME280;45815;52.334;5.024;2023-04-26T08:33:25;102015.13;;;8.57;100.00
58955;BME280;45815;52.334;5.024;2023-04-26T08:35:50;102009.13;;;8.60;100.00
58955;BME280;45815;52.334;5.024;2023-04-26T08:38:16;102014.06;;;8.54;100.00
58955;BME280;45815;52.334;5.024;2023-04-26T08:40:42;102011.41;;;8.34;100.00
58955;BME280;45815;52.334;5.024;2023-04-26T08:43:13;102008.13;;;8.20;100.00
58955;BME280;45815;52.334;5.024;2023-04-26T08:45:39;102012.28;;;8.35;100.00
58955;BME280;45815;52.334;5.024;2023-04-26T08:48:08;102013.03;;;8.32;100.00
58955;BME280;45815;52.334;5.024;2023-04-26T08:50:37;102017.94;;;8.24;100.00
58955;BME280;45815;52.334;5.024;2023-04-26T08:53:03;102022.19;;;8.22;100.00
58955;BME280;45815;52.334;5.024;2023-04-26T08:55:30;102025.59;;;8.21;100.00
58955;BME280;45815;52.334;5.024;2023-04-26T08:57:57;102025.91;;;8.28;100.00
58955;BME280;45815;52.334;5.024;2023-04-26T09:00:24;102013.59;;;8.43;100.00
58955;BME280;45815;52.334;5.024;2023-04-26T09:02:51;102008.84;;;8.73;100.00
58955;BME280;45815;52.334;5.024;2023-04-26T09:05:18;102014.44;;;8.81;100.00
58955;BME280;45815;52.334;5.024;2023-04-26T09:07:48;102008.91;;;9.14;100.00
58955;BME280;45815;52.334;5.024;2023-04-26T09:10:18;102011.00;;;9.22;100.00
58955;BME280;45815;52.334;5.024;2023-04-26T09:12:45;102019.88;;;9.45;100.00
58955;BME280;45815;52.334;5.024;2023-04-26T09:15:13;102011.50;;;9.54;100.00
58955;BME280;45815;52.334;5.024;2023-04-26T09:17:39;102009.28;;;9.63;100.00
58955;BME280;45815;52.334;5.024;2023-04-26T09:20:26;102019.09;;;9.69;100.00
58955;BME280;45815;52.334;5.024;2023-04-26T09:23:03;102020.72;;;9.86;100.00
58955;BME280;45815;52.334;5.024;2023-04-26T09:25:30;102021.59;;;9.66;100.00
58955;BME280;45815;52.334;5.024;2023-04-26T09:27:56;102025.69;;;9.80;100.00
58955;BME280;45815;52.334;5.024;2023-04-26T09:30:22;102016.25;;;9.84;100.00
58955;BME280;45815;52.334;5.024;2023-04-26T09:32:56;102022.97;;;9.77;100.00
58955;BME280;45815;52.334;5.024;2023-04-26T09:40:24;102025.31;;;9.71;100.00
58955;BME280;45815;52.334;5.024;2023-04-26T09:43:00;102028.38;;;9.61;100.00
58955;BME280;45815;52.334;5.024;2023-04-26T09:45:27;102024.88;;;9.60;100.00
58955;BME280;45815;52.334;5.024;2023-04-26T09:47:52;102029.66;;;9.70;100.00
58955;BME280;45815;52.334;5.024;2023-04-26T09:50:29;102024.81;;;9.80;100.00
58955;BME280;45815;52.334;5.024;2023-04-26T09:52:55;102024.41;;;9.91;100.00
58955;BME280;45815;52.334;5.024;2023-04-26T09:55:30;102022.84;;;9.74;100.00
58955;BME280;45815;52.334;5.024;2023-04-26T09:57:57;102022.50;;;9.87;100.00
58955;BME280;45815;52.334;5.024;2023-04-26T10:00:26;102018.66;;;10.00;100.00
58955;BME280;45815;52.334;5.024;2023-04-26T10:02:54;102006.63;;;9.84;100.00
58955;BME280;45815;52.334;5.024;2023-04-26T10:05:20;102012.25;;;9.93;100.00
58955;BME280;45815;52.334;5.024;2023-04-26T10:07:46;102007.03;;;10.16;100.00
58955;BME280;45815;52.334;5.024;2023-04-26T10:10:12;102012.44;;;10.21;100.00
58955;BME280;45815;52.334;5.024;2023-04-26T10:12:39;102008.34;;;10.27;100.00
58955;BME280;45815;52.334;5.024;2023-04-26T10:15:08;102006.44;;;10.23;100.00
58955;BME280;45815;52.334;5.024;2023-04-26T10:17:33;102010.22;;;10.30;100.00
58955;BME280;45815;52.334;5.024;2023-04-26T10:19:59;102007.38;;;10.25;100.00
58955;BME280;45815;52.334;5.024;2023-04-26T10:22:31;101997.63;;;10.44;100.00
58955;BME280;45815;52.334;5.024;2023-04-26T10:24:58;101993.78;;;10.58;100.00
58955;BME280;45815;52.334;5.024;2023-04-26T10:27:50;102004.97;;;10.76;100.00
58955;BME280;45815;52.334;5.024;2023-04-26T10:30:18;101991.47;;;10.90;100.00
58955;BME280;45815;52.334;5.024;2023-04-26T10:35:25;101991.44;;;11.65;100.00
58955;BME280;45815;52.334;5.024;2023-04-26T10:43:34;101990.25;;;12.67;100.00
58955;BME280;45815;52.334;5.024;2023-04-26T10:46:32;101997.28;;;13.30;100.00
58955;BME280;45815;52.334;5.024;2023-04-26T10:49:11;101992.44;;;13.47;98.20
58955;BME280;45815;52.334;5.024;2023-04-26T10:51:37;101992.44;;;13.82;99.03
58955;BME280;45815;52.334;5.024;2023-04-26T10:54:02;101987.22;;;13.85;96.50
58955;BME280;45815;52.334;5.024;2023-04-26T10:59:09;101980.06;;;13.79;88.00
58955;BME280;45815;52.334;5.024;2023-04-26T11:01:35;101991.97;;;13.63;95.76
58955;BME280;45815;52.334;5.024;2023-04-26T11:04:09;101995.47;;;13.27;93.78
58955;BME280;45815;52.334;5.024;2023-04-26T11:09:40;101988.00;;;12.51;96.82
58955;BME280;45815;52.334;5.024;2023-04-26T11:12:13;101982.28;;;12.35;100.00
58955;BME280;45815;52.334;5.024;2023-04-26T11:14:43;101991.41;;;12.18;100.00
58955;BME280;45815;52.334;5.024;2023-04-26T11:17:11;101989.28;;;12.06;100.00
58955;BME280;45815;52.334;5.024;2023-04-26T11:19:37;101989.88;;;11.97;100.00
58955;BME280;45815;52.334;5.024;2023-04-26T11:22:05;101985.91;;;11.84;100.00
58955;BME280;45815;52.334;5.024;2023-04-26T11:24:32;101983.63;;;11.68;100.00
58955;BME280;45815;52.334;5.024;2023-04-26T11:27:06;101990.16;;;11.52;100.00
58955;BME280;45815;52.334;5.024;2023-04-26T11:29:32;101982.50;;;11.34;100.00
58955;BME280;45815;52.334;5.024;2023-04-26T11:31:57;101985.72;;;11.26;100.00
58955;BME280;45815;52.334;5.024;2023-04-26T11:34:41;101983.91;;;10.99;100.00
58955;BME280;45815;52.334;5.024;2023-04-26T11:37:08;101978.50;;;10.94;100.00
58955;BME280;45815;52.334;5.024;2023-04-26T11:39:34;101981.97;;;10.69;100.00
58955;BME280;45815;52.334;5.024;2023-04-26T11:42:07;101981.13;;;10.70;100.00
58955;BME280;45815;52.334;5.024;2023-04-26T11:44:33;101978.28;;;10.64;100.00
58955;BME280;45815;52.334;5.024;2023-04-26T11:47:00;101986.88;;;10.60;100.00
58955;BME280;45815;52.334;5.024;2023-04-26T11:49:28;101962.50;;;10.40;100.00
58955;BME280;45815;52.334;5.024;2023-04-26T11:51:54;101981.94;;;10.45;100.00
58955;BME280;45815;52.334;5.024;2023-04-26T11:54:29;101978.25;;;10.40;100.00
58955;BME280;45815;52.334;5.024;2023-04-26T11:56:56;101981.28;;;10.51;100.00
58955;BME280;45815;52.334;5.024;2023-04-26T11:59:26;101983.19;;;10.55;100.00
58955;BME280;45815;52.334;5.024;2023-04-26T12:01:54;101981.63;;;10.60;100.00
58955;BME280;45815;52.334;5.024;2023-04-26T12:04:28;101980.63;;;10.34;100.00
58955;BME280;45815;52.334;5.024;2023-04-26T12:06:55;101980.34;;;10.49;100.00
58955;BME280;45815;52.334;5.024;2023-04-26T12:09:25;101986.22;;;10.66;100.00
58955;BME280;45815;52.334;5.024;2023-04-26T12:12:03;101980.97;;;10.90;98.51
58955;BME280;45815;52.334;5.024;2023-04-26T12:14:36;101978.13;;;11.09;97.35
58955;BME280;45815;52.334;5.024;2023-04-26T12:17:04;101977.81;;;11.26;97.15
58955;BME280;45815;52.334;5.024;2023-04-26T12:19:37;101977.66;;;11.21;95.14
58955;BME280;45815;52.334;5.024;2023-04-26T12:22:05;101979.19;;;11.40;100.00
58955;BME280;45815;52.334;5.024;2023-04-26T12:24:32;101979.50;;;11.49;100.00
58955;BME280;45815;52.334;5.024;2023-04-26T12:27:02;101973.31;;;11.47;98.42
58955;BME280;45815;52.334;5.024;2023-04-26T12:29:29;101980.66;;;11.57;99.57
58955;BME280;45815;52.334;5.024;2023-04-26T12:31:56;101991.25;;;11.59;98.15
58955;BME280;45815;52.334;5.024;2023-04-26T12:34:22;101990.16;;;11.52;100.00
58955;BME280;45815;52.334;5.024;2023-04-26T12:36:48;101990.03;;;11.49;100.00
58955;BME280;45815;52.334;5.024;2023-04-26T12:39:13;101999.25;;;11.36;100.00
58955;BME280;45815;52.334;5.024;2023-04-26T12:41:44;102004.56;;;11.38;100.00
58955;BME280;45815;52.334;5.024;2023-04-26T12:44:10;101991.13;;;11.30;100.00
58955;BME280;45815;52.334;5.024;2023-04-26T12:46:36;101986.66;;;11.28;100.00
58955;BME280;45815;52.334;5.024;2023-04-26T12:49:01;101992.50;;;11.45;100.00
58955;BME280;45815;52.334;5.024;2023-04-26T12:51:28;101989.97;;;11.73;99.86
58955;BME280;45815;52.334;5.024;2023-04-26T12:53:54;101981.34;;;12.04;100.00
58955;BME280;45815;52.334;5.024;2023-04-26T12:56:19;101992.19;;;12.44;100.00
58955;BME280;45815;52.334;5.024;2023-04-26T12:58:44;101991.38;;;12.77;96.89
58955;BME280;45815;52.334;5.024;2023-04-26T13:01:12;101990.50;;;12.76;100.00
58955;BME280;45815;52.334;5.024;2023-04-26T13:03:38;101983.16;;;12.66;97.65
58955;BME280;45815;52.334;5.024;2023-04-26T13:06:04;101988.84;;;12.50;100.00